createdAt,value
2017-11-06T00:00:27.362Z,4.40
2017-11-06T00:02:56.017Z,4.10
2017-11-06T00:05:23.407Z,3.60
2017-11-06T00:07:50.837Z,3.90
2017-11-06T00:10:18.218Z,3.80
2017-11-06T00:12:45.674Z,4.23
2017-11-06T00:15:13.106Z,4.40
2017-11-06T00:17:40.489Z,4.67
2017-11-06T00:20:07.950Z,4.83
2017-11-06T00:22:35.329Z,5.07
2017-11-06T00:25:02.777Z,3.90
2017-11-06T00:27:30.179Z,4.27
2017-11-06T00:29:57.598Z,4.00
2017-11-06T00:32:24.992Z,4.03
2017-11-06T00:34:52.415Z,4.70
2017-11-06T00:37:19.802Z,4.17
2017-11-06T00:39:47.221Z,4.53
2017-11-06T00:42:14.633Z,4.07
2017-11-06T00:44:42.056Z,4.63
2017-11-06T00:47:09.489Z,4.70
2017-11-06T00:49:36.903Z,4.53
2017-11-06T00:52:04.343Z,4.70
2017-11-06T00:54:31.750Z,4.60
2017-11-06T00:56:59.193Z,4.73
2017-11-06T00:59:27.375Z,4.70
2017-11-06T01:01:54.804Z,4.87
2017-11-06T01:04:22.199Z,4.23
2017-11-06T01:06:49.618Z,4.57
2017-11-06T01:09:17.015Z,5.20
2017-11-06T01:11:44.436Z,4.80
2017-11-06T01:14:11.821Z,4.97
2017-11-06T01:16:39.256Z,5.13
2017-11-06T01:19:06.704Z,4.67
2017-11-06T01:21:34.122Z,5.17
2017-11-06T01:24:01.559Z,4.33
2017-11-06T01:26:28.557Z,4.53
2017-11-06T01:28:55.998Z,4.70
2017-11-06T01:31:23.401Z,4.27
2017-11-06T01:33:50.828Z,5.10
2017-11-06T01:36:18.340Z,4.80
2017-11-06T01:38:45.801Z,5.17
2017-11-06T01:41:13.194Z,5.07
2017-11-06T01:43:40.603Z,5.03
2017-11-06T01:46:08.015Z,5.03
2017-11-06T01:48:35.423Z,4.70
2017-11-06T01:51:02.915Z,5.07
2017-11-06T01:53:30.356Z,5.10
2017-11-06T01:55:57.772Z,5.30
2017-11-06T01:58:25.177Z,4.23
2017-11-06T02:00:52.584Z,4.00
2017-11-06T02:03:19.975Z,4.77
2017-11-06T02:05:47.413Z,4.70
2017-11-06T02:08:14.804Z,4.03
2017-11-06T02:10:42.196Z,4.10
2017-11-06T02:13:09.616Z,4.13
2017-11-06T02:15:37.034Z,3.80
2017-11-06T02:18:04.413Z,4.50
2017-11-06T02:20:31.855Z,4.70
2017-11-06T02:22:59.256Z,4.17
2017-11-06T02:25:26.668Z,4.50
2017-11-06T02:27:54.085Z,3.70
2017-11-06T02:30:21.486Z,4.57
2017-11-06T02:32:48.934Z,4.57
2017-11-06T02:35:16.324Z,3.87
2017-11-06T02:37:43.756Z,4.33
2017-11-06T02:40:11.139Z,4.00
2017-11-06T02:42:38.607Z,4.20
2017-11-06T02:45:06.026Z,4.63
2017-11-06T02:47:33.459Z,4.17
2017-11-06T02:50:00.865Z,4.73
2017-11-06T02:52:28.313Z,3.90
2017-11-06T02:54:55.708Z,4.37
2017-11-06T02:57:23.095Z,4.30
2017-11-06T02:59:50.520Z,4.70
2017-11-06T03:02:18.756Z,4.43
2017-11-06T03:04:46.171Z,4.43
2017-11-06T03:07:13.575Z,4.33
2017-11-06T03:09:40.988Z,4.63
2017-11-06T03:12:08.404Z,4.70
2017-11-06T03:14:35.816Z,4.37
2017-11-06T03:17:03.216Z,4.63
2017-11-06T03:19:30.730Z,4.20
2017-11-06T03:21:58.131Z,4.87
2017-11-06T03:24:25.564Z,4.70
2017-11-06T03:26:53.003Z,4.77
2017-11-06T03:29:20.405Z,4.90
2017-11-06T03:31:47.847Z,4.73
2017-11-06T03:34:15.252Z,4.93
2017-11-06T03:36:42.681Z,4.03
2017-11-06T03:39:10.100Z,5.10
2017-11-06T03:41:37.526Z,5.40
2017-11-06T03:44:04.912Z,4.23
2017-11-06T03:46:32.319Z,4.20
2017-11-06T03:48:59.716Z,4.57
2017-11-06T03:51:27.132Z,4.13
2017-11-06T03:53:54.534Z,3.87
2017-11-06T03:56:21.916Z,3.50
2017-11-06T03:58:49.357Z,3.80
2017-11-06T04:01:16.776Z,3.40
2017-11-06T04:03:44.212Z,3.60
2017-11-06T04:06:11.610Z,4.03
2017-11-06T04:08:39.024Z,3.80
2017-11-06T04:11:06.425Z,3.53
2017-11-06T04:13:33.846Z,5.10
2017-11-06T04:16:01.267Z,3.67
2017-11-06T04:18:29.379Z,3.80
2017-11-06T04:20:56.807Z,3.80
2017-11-06T04:23:26.008Z,4.13
2017-11-06T04:25:53.431Z,3.80
2017-11-06T04:28:20.826Z,4.00
2017-11-06T04:30:48.272Z,3.97
2017-11-06T04:33:15.687Z,3.97
2017-11-06T04:35:43.099Z,4.60
2017-11-06T04:38:10.495Z,4.20
2017-11-06T04:40:37.916Z,3.67
2017-11-06T04:43:05.311Z,3.70
2017-11-06T04:45:32.740Z,3.80
2017-11-06T04:48:00.135Z,3.87
2017-11-06T04:50:27.524Z,3.57
2017-11-06T04:52:54.940Z,3.80
2017-11-06T04:55:22.327Z,3.60
2017-11-06T04:57:49.746Z,3.37
2017-11-06T05:00:17.140Z,3.50
2017-11-06T05:02:44.576Z,3.43
2017-11-06T05:05:11.975Z,3.70
2017-11-06T05:07:39.399Z,3.70
2017-11-06T05:10:06.815Z,3.77
2017-11-06T05:12:34.208Z,3.47
2017-11-06T05:15:01.628Z,3.87
2017-11-06T05:17:29.015Z,3.67
2017-11-06T05:19:56.439Z,3.97
2017-11-06T05:22:23.820Z,3.77
2017-11-06T05:24:51.257Z,4.23
2017-11-06T05:27:18.645Z,4.40
2017-11-06T05:29:46.077Z,4.27
2017-11-06T05:32:13.477Z,3.60
2017-11-06T05:34:40.882Z,4.70
2017-11-06T05:37:08.268Z,4.40
2017-11-06T05:39:35.719Z,4.30
2017-11-06T05:42:03.144Z,4.87
2017-11-06T05:44:30.571Z,5.50
2017-11-06T05:46:57.988Z,5.00
2017-11-06T05:49:25.407Z,5.30
2017-11-06T05:51:52.803Z,5.40
2017-11-06T05:54:20.235Z,5.40
2017-11-06T05:56:48.553Z,6.37
2017-11-06T05:59:15.980Z,6.67
2017-11-06T06:01:43.368Z,6.20
2017-11-06T06:04:10.797Z,6.30
2017-11-06T06:06:39.040Z,5.40
2017-11-06T06:09:06.436Z,6.17
2017-11-06T06:11:33.873Z,4.20
2017-11-06T06:14:01.249Z,5.03
2017-11-06T06:16:28.669Z,4.80
2017-11-06T06:18:56.087Z,4.60
2017-11-06T06:21:23.472Z,4.77
2017-11-06T06:23:50.922Z,4.50
2017-11-06T06:26:18.396Z,4.43
2017-11-06T06:28:45.911Z,4.80
2017-11-06T06:31:13.306Z,5.27
2017-11-06T06:33:40.729Z,4.27
2017-11-06T06:36:08.142Z,4.73
2017-11-06T06:38:35.576Z,5.10
2017-11-06T06:41:03.007Z,3.53
2017-11-06T06:43:30.428Z,4.00
2017-11-06T06:45:57.893Z,4.50
2017-11-06T06:48:25.307Z,5.63
2017-11-06T06:50:52.793Z,4.70
2017-11-06T06:53:20.200Z,4.70
2017-11-06T06:55:47.652Z,4.63
2017-11-06T06:58:15.057Z,5.27
2017-11-06T07:00:42.742Z,5.73
2017-11-06T07:03:14.947Z,5.63
2017-11-06T07:05:42.411Z,5.53
2017-11-06T07:08:09.829Z,6.30
2017-11-06T07:10:37.880Z,6.77
2017-11-06T07:13:05.280Z,5.93
2017-11-06T07:15:32.719Z,8.87
2017-11-06T07:18:00.099Z,6.57
2017-11-06T07:20:27.733Z,6.83
2017-11-06T07:22:55.165Z,9.97
2017-11-06T07:25:22.559Z,7.70
2017-11-06T07:27:50.890Z,8.10
2017-11-06T07:30:18.289Z,9.07
2017-11-06T07:32:45.707Z,9.40
2017-11-06T07:35:13.152Z,8.73
2017-11-06T07:37:40.576Z,9.13
2017-11-06T07:40:07.995Z,8.87
2017-11-06T07:42:36.815Z,9.13
2017-11-06T07:45:06.766Z,8.93
2017-11-06T07:47:34.330Z,9.57
2017-11-06T07:50:04.826Z,9.73
2017-11-06T07:52:32.456Z,8.90
2017-11-06T07:55:00.029Z,8.67
2017-11-06T07:57:33.050Z,8.70
2017-11-06T08:00:03.064Z,12.27
2017-11-06T08:02:32.493Z,9.70
2017-11-06T08:05:03.281Z,8.80
2017-11-06T08:07:30.676Z,9.67
2017-11-06T08:09:58.113Z,8.30
2017-11-06T08:12:28.087Z,10.03
2017-11-06T08:14:55.607Z,9.10
2017-11-06T08:17:24.041Z,9.10
2017-11-06T08:19:52.296Z,9.93
2017-11-06T08:22:19.871Z,9.07
2017-11-06T08:24:47.255Z,9.47
2017-11-06T08:27:14.870Z,9.07
2017-11-06T08:29:42.356Z,8.57
2017-11-06T08:32:12.620Z,8.70
2017-11-06T08:34:40.039Z,9.97
2017-11-06T08:37:07.545Z,8.00
2017-11-06T08:39:34.960Z,9.93
2017-11-06T08:42:02.372Z,8.60
2017-11-06T08:44:29.800Z,9.00
2017-11-06T08:46:57.228Z,7.60
2017-11-06T08:49:25.613Z,8.30
2017-11-06T08:51:53.099Z,8.57
2017-11-06T08:54:20.490Z,8.67
2017-11-06T08:56:48.834Z,7.90
2017-11-06T08:59:16.296Z,7.60
2017-11-06T09:01:43.767Z,8.33
2017-11-06T09:04:11.196Z,9.00
2017-11-06T09:06:38.596Z,8.03
2017-11-06T09:09:06.041Z,9.80
2017-11-06T09:11:33.460Z,8.70
2017-11-06T09:14:00.947Z,8.40
2017-11-06T09:16:28.406Z,9.03
2017-11-06T09:18:55.840Z,9.10
2017-11-06T09:21:24.028Z,9.47
2017-11-06T09:23:51.433Z,9.00
2017-11-06T09:26:18.860Z,9.13
2017-11-06T09:28:56.213Z,10.20
2017-11-06T09:31:23.690Z,10.33
2017-11-06T09:33:51.128Z,9.13
2017-11-06T09:36:18.625Z,9.30
2017-11-06T09:38:46.041Z,8.60
2017-11-06T09:41:13.499Z,8.50
2017-11-06T09:43:40.935Z,9.13
2017-11-06T09:46:08.563Z,9.10
2017-11-06T09:48:35.987Z,8.13
2017-11-06T09:51:03.429Z,8.50
2017-11-06T09:53:30.847Z,8.30
2017-11-06T09:56:00.896Z,7.50
2017-11-06T09:58:28.459Z,10.03
2017-11-06T10:00:55.914Z,8.20
2017-11-06T10:06:02.090Z,7.20
2017-11-06T10:08:29.627Z,7.47
2017-11-06T10:10:57.022Z,7.47
2017-11-06T10:13:24.471Z,7.27
2017-11-06T10:15:51.867Z,7.90
2017-11-06T10:18:20.214Z,8.17
2017-11-06T10:20:47.837Z,7.40
2017-11-06T10:23:15.269Z,6.53
2017-11-06T10:25:43.409Z,7.20
2017-11-06T10:28:10.824Z,7.57
2017-11-06T10:30:38.224Z,6.70
2017-11-06T10:33:12.741Z,7.80
2017-11-06T10:35:40.137Z,6.97
2017-11-06T10:38:07.547Z,7.00
2017-11-06T10:40:34.983Z,7.50
2017-11-06T10:43:02.389Z,5.30
2017-11-06T10:45:32.074Z,5.73
2017-11-06T10:48:00.959Z,6.03
2017-11-06T10:53:09.802Z,5.27
2017-11-06T10:55:39.488Z,5.30
2017-11-06T10:58:09.103Z,5.10
2017-11-06T11:00:36.536Z,4.43
2017-11-06T11:03:03.931Z,3.97
2017-11-06T11:05:31.370Z,4.20
2017-11-06T11:07:58.803Z,4.43
2017-11-06T11:10:26.232Z,4.50
2017-11-06T11:12:53.641Z,6.20
2017-11-06T11:15:21.069Z,4.30
2017-11-06T11:17:48.488Z,12.23
2017-11-06T11:20:15.963Z,4.07
2017-11-06T11:22:43.375Z,4.53
2017-11-06T11:25:10.795Z,4.47
2017-11-06T11:27:38.215Z,3.93
2017-11-06T11:30:05.621Z,3.83
2017-11-06T11:32:33.101Z,4.30
2017-11-06T11:35:00.488Z,4.77
2017-11-06T11:37:27.928Z,4.60
2017-11-06T11:39:55.362Z,4.83
2017-11-06T11:42:22.823Z,4.60
2017-11-06T11:44:50.265Z,7.40
2017-11-06T11:47:17.735Z,5.20
2017-11-06T11:49:45.158Z,4.60
2017-11-06T11:52:12.630Z,4.73
2017-11-06T11:54:40.079Z,5.37
2017-11-06T11:57:07.530Z,5.83
2017-11-06T11:59:34.992Z,4.70
2017-11-06T12:02:03.707Z,4.50
2017-11-06T12:04:31.934Z,4.90
2017-11-06T12:06:59.381Z,6.27
2017-11-06T12:09:26.837Z,4.30
2017-11-06T12:11:54.260Z,5.20
2017-11-06T12:14:21.705Z,4.10
2017-11-06T12:16:49.125Z,3.93
2017-11-06T12:19:16.567Z,4.63
2017-11-06T12:21:44.184Z,4.60
2017-11-06T12:24:11.602Z,6.23
2017-11-06T12:26:39.086Z,4.90
2017-11-06T12:29:06.557Z,5.80
2017-11-06T12:31:33.969Z,6.17
2017-11-06T12:34:01.384Z,6.97
2017-11-06T12:36:28.887Z,5.20
2017-11-06T12:38:56.424Z,5.70
2017-11-06T12:41:23.866Z,4.97
2017-11-06T12:43:52.632Z,5.07
2017-11-06T12:46:20.081Z,5.07
2017-11-06T12:48:47.626Z,5.47
2017-11-06T12:51:15.109Z,4.60
2017-11-06T12:53:42.534Z,5.70
2017-11-06T12:56:09.948Z,5.03
2017-11-06T12:58:37.384Z,6.47
2017-11-06T13:01:04.802Z,5.10
2017-11-06T13:03:32.261Z,5.20
2017-11-06T13:05:59.708Z,4.70
2017-11-06T13:08:27.424Z,5.00
2017-11-06T13:10:54.937Z,5.40
2017-11-06T13:13:22.371Z,5.50
2017-11-06T13:15:49.777Z,4.97
2017-11-06T13:18:17.245Z,6.20
2017-11-06T13:20:44.671Z,5.80
2017-11-06T13:23:12.104Z,6.00
2017-11-06T13:25:39.492Z,7.00
2017-11-06T13:28:06.948Z,5.47
2017-11-06T13:30:34.345Z,7.77
2017-11-06T13:33:01.756Z,5.53
2017-11-06T13:35:29.674Z,5.50
2017-11-06T13:37:57.336Z,5.93
2017-11-06T13:40:24.779Z,5.13
2017-11-06T13:42:52.237Z,6.00
2017-11-06T13:45:19.661Z,4.57
2017-11-06T13:47:47.068Z,5.50
2017-11-06T13:50:14.477Z,4.40
2017-11-06T13:52:42.057Z,5.47
2017-11-06T13:55:09.476Z,6.00
2017-11-06T13:57:36.896Z,5.63
2017-11-06T14:00:04.365Z,5.50
2017-11-06T14:02:31.781Z,5.63
2017-11-06T14:04:59.212Z,5.50
2017-11-06T14:07:26.636Z,5.43
2017-11-06T14:09:54.071Z,5.60
2017-11-06T14:12:21.489Z,6.67
2017-11-06T14:14:48.888Z,5.67
2017-11-06T14:17:16.349Z,5.77
2017-11-06T14:19:43.739Z,6.63
2017-11-06T14:22:11.152Z,5.87
2017-11-06T14:24:39.493Z,6.47
2017-11-06T14:27:06.937Z,7.23
2017-11-06T14:29:34.351Z,4.57
2017-11-06T14:32:01.803Z,5.50
2017-11-06T14:34:29.211Z,4.93
2017-11-06T14:36:56.653Z,5.07
2017-11-06T14:39:24.081Z,4.40
2017-11-06T14:41:51.490Z,6.10
2017-11-06T14:44:19.004Z,5.33
2017-11-06T14:46:46.399Z,5.17
2017-11-06T14:49:13.830Z,5.03
2017-11-06T14:51:41.234Z,5.77
2017-11-06T14:54:08.668Z,5.57
2017-11-06T14:56:36.093Z,5.90
2017-11-06T14:59:03.535Z,5.40
2017-11-06T15:01:30.976Z,5.27
2017-11-06T15:03:58.434Z,5.10
2017-11-06T15:06:25.891Z,5.00
2017-11-06T15:08:53.307Z,5.20
2017-11-06T15:11:21.207Z,5.73
2017-11-06T15:13:48.627Z,4.77
2017-11-06T15:16:16.068Z,5.07
2017-11-06T15:18:43.489Z,5.00
2017-11-06T15:21:10.932Z,5.20
2017-11-06T15:23:38.348Z,6.27
2017-11-06T15:26:05.752Z,5.23
2017-11-06T15:28:33.170Z,4.00
2017-11-06T15:31:00.604Z,4.33
2017-11-06T15:33:28.071Z,4.93
2017-11-06T15:35:55.480Z,5.00
2017-11-06T15:38:22.922Z,5.07
2017-11-06T15:40:50.344Z,5.63
2017-11-06T15:43:17.789Z,4.73
2017-11-06T15:45:45.189Z,5.67
2017-11-06T15:48:12.658Z,5.13
2017-11-06T15:50:40.091Z,5.00
2017-11-06T15:53:07.584Z,5.20
2017-11-06T15:55:35.011Z,5.97
2017-11-06T15:58:02.637Z,4.80
2017-11-06T16:00:30.057Z,4.63
2017-11-06T16:02:57.479Z,5.50
2017-11-06T16:05:24.900Z,5.33
2017-11-06T16:07:52.295Z,4.60
2017-11-06T16:10:19.740Z,4.33
2017-11-06T16:12:47.135Z,6.73
2017-11-06T16:15:14.580Z,5.60
2017-11-06T16:17:42.001Z,5.50
2017-11-06T16:20:09.424Z,4.53
2017-11-06T16:22:36.816Z,5.50
2017-11-06T16:25:04.237Z,5.17
2017-11-06T16:27:31.855Z,5.20
2017-11-06T16:29:59.356Z,6.90
2017-11-06T16:32:26.793Z,5.10
2017-11-06T16:34:54.264Z,4.70
2017-11-06T16:37:21.651Z,5.83
2017-11-06T16:39:49.146Z,5.40
2017-11-06T16:42:16.662Z,4.70
2017-11-06T16:44:44.169Z,4.63
2017-11-06T16:47:11.569Z,6.07
2017-11-06T16:49:39.012Z,5.20
2017-11-06T16:52:06.464Z,4.80
2017-11-06T16:54:33.888Z,4.90
2017-11-06T16:57:01.288Z,4.83
2017-11-06T16:59:28.764Z,5.10
2017-11-06T17:01:56.205Z,5.30
2017-11-06T17:04:23.649Z,5.70
2017-11-06T17:06:51.039Z,7.00
2017-11-06T17:09:19.284Z,7.47
2017-11-06T17:11:46.744Z,4.93
2017-11-06T17:14:14.167Z,4.77
2017-11-06T17:16:41.620Z,5.43
2017-11-06T17:19:09.071Z,8.00
2017-11-06T17:21:36.528Z,5.83
2017-11-06T17:24:03.916Z,5.60
2017-11-06T17:26:31.360Z,7.80
2017-11-06T17:28:58.771Z,5.97
2017-11-06T17:31:26.192Z,5.87
2017-11-06T17:33:53.624Z,6.07
2017-11-06T17:36:21.011Z,5.67
2017-11-06T17:38:48.458Z,6.63
2017-11-06T17:41:15.895Z,6.30
2017-11-06T17:43:43.446Z,6.70
2017-11-06T17:46:10.874Z,6.17
2017-11-06T17:48:38.369Z,5.90
2017-11-06T17:51:05.782Z,6.13
2017-11-06T17:53:33.213Z,6.03
2017-11-06T17:56:00.646Z,6.20
2017-11-06T17:58:28.150Z,7.30
2017-11-06T18:00:55.615Z,7.27
2017-11-06T18:03:23.081Z,7.13
2017-11-06T18:05:50.532Z,5.73
2017-11-06T18:08:17.954Z,6.10
2017-11-06T18:10:45.430Z,7.57
2017-11-06T18:13:13.595Z,6.33
2017-11-06T18:15:41.169Z,6.03
2017-11-06T18:18:08.586Z,7.13
2017-11-06T18:20:36.037Z,6.40
2017-11-06T18:23:03.439Z,6.80
2017-11-06T18:25:30.959Z,5.93
2017-11-06T18:27:58.394Z,6.63
2017-11-06T18:30:25.843Z,6.60
2017-11-06T18:32:53.296Z,7.00
2017-11-06T18:35:20.683Z,7.03
2017-11-06T18:37:48.156Z,7.90
2017-11-06T18:40:15.599Z,8.47
2017-11-06T18:42:43.029Z,8.47
2017-11-06T18:45:10.463Z,7.70
2017-11-06T18:47:37.893Z,8.10
2017-11-06T18:50:05.351Z,8.60
2017-11-06T18:52:32.778Z,8.03
2017-11-06T18:55:00.239Z,8.37
2017-11-06T18:57:27.878Z,8.93
2017-11-06T18:59:55.368Z,8.47
2017-11-06T19:02:22.841Z,7.63
2017-11-06T19:04:51.171Z,8.23
2017-11-06T19:07:18.561Z,7.90
2017-11-06T19:09:46.063Z,8.60
2017-11-06T19:12:13.556Z,10.27
2017-11-06T19:14:40.971Z,9.00
2017-11-06T19:17:08.433Z,9.47
2017-11-06T19:19:35.875Z,8.43
2017-11-06T19:22:03.774Z,8.20
2017-11-06T19:24:31.280Z,9.30
2017-11-06T19:26:58.735Z,8.03
2017-11-06T19:29:26.171Z,7.97
2017-11-06T19:31:53.624Z,7.00
2017-11-06T19:34:21.059Z,7.10
2017-11-06T19:36:48.531Z,8.20
2017-11-06T19:39:15.997Z,6.73
2017-11-06T19:41:43.463Z,7.67
2017-11-06T19:44:10.892Z,7.10
2017-11-06T19:46:38.359Z,7.23
2017-11-06T19:49:05.794Z,7.73
2017-11-06T19:51:33.299Z,7.23
2017-11-06T19:54:00.764Z,7.17
2017-11-06T19:56:28.198Z,6.70
2017-11-06T19:58:55.649Z,7.30
2017-11-06T20:01:23.068Z,7.03
2017-11-06T20:03:50.544Z,7.80
2017-11-06T20:06:18.022Z,8.37
2017-11-06T20:08:45.526Z,7.33
2017-11-06T20:11:12.944Z,7.73
2017-11-06T20:13:40.394Z,7.37
2017-11-06T20:16:13.396Z,7.00
2017-11-06T20:18:41.061Z,8.20
2017-11-06T20:21:08.505Z,7.50
2017-11-06T20:23:36.805Z,8.53
2017-11-06T20:26:04.233Z,9.07
2017-11-06T20:28:31.638Z,8.50
2017-11-06T20:30:59.281Z,8.33
2017-11-06T20:33:26.715Z,8.90
2017-11-06T20:35:54.239Z,8.90
2017-11-06T20:38:21.741Z,9.37
2017-11-06T20:40:49.190Z,9.20
2017-11-06T20:43:16.860Z,11.00
2017-11-06T20:45:44.280Z,9.07
2017-11-06T20:48:11.730Z,9.63
2017-11-06T20:50:39.177Z,8.37
2017-11-06T20:53:06.569Z,8.50
2017-11-06T20:55:34.036Z,10.00
2017-11-06T20:58:01.443Z,10.47
2017-11-06T21:00:28.940Z,9.57
2017-11-06T21:02:56.506Z,8.80
2017-11-06T21:05:23.982Z,9.53
2017-11-06T21:07:51.423Z,8.90
2017-11-06T21:10:19.795Z,9.30
2017-11-06T21:12:47.445Z,8.30
2017-11-06T21:15:14.897Z,8.90
2017-11-06T21:17:42.600Z,9.20
2017-11-06T21:20:10.044Z,8.17
2017-11-06T21:22:37.697Z,8.03
2017-11-06T21:25:05.114Z,8.57
2017-11-06T21:27:32.569Z,8.00
2017-11-06T21:30:05.602Z,7.73
2017-11-06T21:32:33.170Z,7.77
2017-11-06T21:35:01.621Z,7.30
2017-11-06T21:37:29.049Z,7.60
2017-11-06T21:39:56.502Z,8.50
2017-11-06T21:42:24.018Z,8.77
2017-11-06T21:44:51.429Z,9.53
2017-11-06T21:47:18.893Z,9.90
2017-11-06T21:49:46.324Z,9.60
2017-11-06T21:52:13.803Z,8.50
2017-11-06T21:54:41.303Z,7.83
2017-11-06T21:57:08.706Z,7.20
2017-11-06T21:59:36.148Z,7.03
2017-11-06T22:02:03.576Z,7.03
2017-11-06T22:04:31.022Z,6.70
2017-11-06T22:06:58.487Z,6.20
2017-11-06T22:09:25.994Z,6.57
2017-11-06T22:11:53.456Z,6.80
2017-11-06T22:14:20.937Z,7.13
2017-11-06T22:16:48.394Z,7.57
2017-11-06T22:19:15.825Z,6.67
2017-11-06T22:21:43.248Z,6.80
2017-11-06T22:24:10.832Z,6.70
2017-11-06T22:26:38.244Z,6.20
2017-11-06T22:29:05.643Z,6.03
2017-11-06T22:31:33.092Z,7.50
2017-11-06T22:34:00.510Z,6.30
2017-11-06T22:36:27.948Z,7.77
2017-11-06T22:38:55.396Z,7.60
2017-11-06T22:41:22.820Z,6.50
2017-11-06T22:43:50.263Z,6.80
2017-11-06T22:46:17.674Z,6.23
2017-11-06T22:48:45.142Z,6.17
2017-11-06T22:51:12.550Z,6.60
2017-11-06T22:53:39.993Z,6.37
2017-11-06T22:56:07.417Z,6.53
2017-11-06T22:58:34.893Z,6.10
2017-11-06T23:01:02.343Z,7.27
2017-11-06T23:03:29.887Z,6.83
2017-11-06T23:05:57.290Z,7.37
2017-11-06T23:08:24.753Z,6.37
2017-11-06T23:10:52.209Z,6.30
2017-11-06T23:13:19.644Z,7.03
2017-11-06T23:15:47.098Z,7.00
2017-11-06T23:18:14.488Z,6.80
2017-11-06T23:20:41.919Z,7.13
2017-11-06T23:23:09.324Z,6.67
2017-11-06T23:25:36.789Z,6.80
2017-11-06T23:28:04.195Z,6.73
2017-11-06T23:30:31.596Z,7.83
2017-11-06T23:32:59.043Z,7.00
2017-11-06T23:35:27.475Z,8.23
2017-11-06T23:37:54.941Z,7.87
2017-11-06T23:40:22.351Z,7.23
2017-11-06T23:42:49.803Z,7.97
2017-11-06T23:45:17.234Z,8.33
2017-11-06T23:47:44.672Z,6.80
2017-11-06T23:50:12.984Z,7.13
2017-11-06T23:52:40.487Z,7.17
2017-11-06T23:55:07.910Z,7.83
2017-11-06T23:57:35.355Z,7.73
